x

Western Caribbean - 195 Nm Wsw Of Negril Jamiaca (42057) Wave Buoy

3:50 - Fri 27th Feb 2015 All times are UTC.

  • Sig Wave height 5.2ft
  • Swell Direction
  • Peak Period 8s
  • Average Period 5s
  • Wind
    16mph, 20mph gusts
  • Sea Temp 81°f
  • Air Temp 81°f
  • Sea Pressure 1014mb

More Historic Weather Station data

Upgrade to MSW Pro to gain access to the past 30 days of data for over 8000 Wavebouys and Weather Stations around the globe.

Join Pro

Comparision Forecast

View Surf forecast
   
ven. 02/27 3:50 5ft 8s 5s 16 20 mph 1014mb 81f 81f
2:50 5ft 7s 5s 16 20 mph 1013.9mb 81f 81f
1:50 5ft 8s 6s 16 18 mph 1013.6mb 81f 81f
12:50 5ft 7s 6s 16 20 mph 1012.7mb 81f 81f
jeu. 02/26 11:50 5ft 8s 5s 16 18 mph 1012.1mb 81f 81f
10:50 5ft 8s 6s 13 16 mph 1012.1mb 81f 81f
9:50 5ft 8s 5s 11 13 mph 1011.8mb 81f 81f
8:50 5ft 8s 5s 11 13 mph 1011.7mb 81f 81f
7:50 4.5ft 9s 5s 16 18 mph 1011.8mb 81f 81f
6:50 4.5ft 8s 5s 13 16 mph 1012.5mb 81f 81f
5:50 4.5ft 8s 5s 16 18 mph 1013.2mb 81f 81f
4:50 4ft 8s 5s 16 18 mph 1013.6mb 81f 81f
3:50 4ft 8s 5s 16 18 mph 1014.2mb 81f 81f
2:50 4.5ft 8s 5s 16 18 mph 1014.2mb 81f 81f
1:50 4ft 8s 5s 16 18 mph 1013.6mb 81f 81f
12:50 4ft 8s 5s 16 18 mph 1013.3mb 81f 80f
11:50 4ft 8s 5s 18 20 mph 1012.5mb 81f 80f
10:50 4ft 8s 5s 18 22 mph 1011.4mb 81f 80f
9:50 3.5ft 7s 5s 16 20 mph 1011.1mb 81f 80f
8:50 3.5ft 8s 5s 18 20 mph 1011mb 81f 80f
7:50 3.5ft 7s 5s 16 18 mph 1011.3mb 81f 80f
6:50 3.5ft 7s 5s 16 20 mph 1011.9mb 81f 80f
5:50 3.5ft 7s 5s 16 20 mph 1012.6mb 81f 80f
4:50 3.5ft 8s 5s 16 18 mph 1013.1mb 81f 80f
3:50 3.5ft 8s 5s 16 18 mph 1013.7mb 81f 80f
2:50 3ft 8s 5s 13 16 mph 1013.7mb 81f 80f
1:50 3.5ft 8s 5s 11 13 mph 1013.6mb 81f 80f
12:50 3.5ft 8s 5s 11 13 mph 1013mb 81f 80f
mer. 02/25 11:50 3.5ft 7s 5s 13 16 mph 1012.4mb 81f 80f
10:50 3.5ft 8s 5s 13 18 mph 1012.2mb 81f 80f
9:50 3.5ft 8s 5s 16 18 mph 1011.7mb 81f 81f
8:50 3.5ft 8s 5s 13 16 mph 1011.9mb 81f 79f
7:50 3.5ft 8s 5s 11 13 mph 1012.5mb 81f 80f
6:50 3ft 8s 5s 11 13 mph 1013.1mb 81f 80f
5:50 3.5ft 8s 5s 11 13 mph 1013.9mb 81f 80f
4:50 3.5ft 8s 6s 11 13 mph 1014.8mb 81f 80f
3:50 3.5ft 9s 5s 11 13 mph 1015.3mb 81f 80f
2:50 3.5ft 7s 5s 13 16 mph 1015.2mb 81f 80f
1:50 3ft 8s 5s 11 13 mph 1014.4mb 81f 80f
12:50 3ft 8s 5s 11 13 mph 1013.8mb 81f 79f
11:50 3.5ft 8s 6s 11 13 mph 1013.3mb 81f 79f
10:50 3.5ft 7s 5s 11 13 mph 1012.6mb 81f 79f
9:50 3.5ft 8s 5s 13
mph
1012.3mb 81f 79f
8:50 3.5ft 8s 5s 11 13 mph 1012.2mb 81f 79f
7:50 3.5ft 7s 5s 11 13 mph 1012.7mb 81f 79f
6:50 3.5ft 8s 5s 11 16 mph 1013.6mb 81f 80f
5:50 3.5ft 8s 5s 11 16 mph 1014.5mb 81f 80f
4:50 3.5ft 9s 5s 11 13 mph 1015.4mb 81f 80f
3:50 3.5ft 8s 5s 13
mph
1015.7mb 81f 80f
2:50 3.5ft 8s 5s 13 16 mph 1015.7mb 81f 80f
1:50 3.5ft 8s 5s 16 18 mph 1015.4mb 81f 80f
12:50 3.5ft 8s 5s 16 18 mph 1014.7mb 81f 80f
mar. 02/24 11:50 3.5ft 9s 6s 13 16 mph 1014.1mb 81f 80f
10:50 3ft 9s 6s 11 13 mph 1013.8mb 82f 81f
9:50 3ft 9s 5s 11 13 mph 1013.4mb 82f 81f
8:50 3ft 8s 6s 11 13 mph 1013.3mb 82f 81f
7:50 3.5ft 9s 5s 11 13 mph 1014mb 82f 81f
6:50 3ft 8s 5s 9 11 mph 1014.9mb 82f 81f
5:50 3.5ft 8s 5s 11 13 mph 1015.5mb 81f 80f
4:50 3.5ft 8s 5s 13 16 mph 1016mb 81f 80f
3:50 3.5ft 9s 5s 11 13 mph 1016.5mb 81f 80f
2:50 3.5ft 8s 5s 13
mph
1016.4mb 81f 80f
1:50 3.5ft 8s 5s 13 16 mph 1016mb 81f 80f
12:50 3.5ft 8s 5s 13 16 mph 1015.5mb 81f 80f
11:50 3.5ft 8s 5s 13 16 mph 1015.2mb 81f 79f
10:50 3.5ft 8s 5s 13 16 mph 1014.6mb 81f 79f
9:50 3.5ft 9s 6s 11 13 mph 1014.5mb 81f 79f
8:50 3.5ft 9s 5s 11 13 mph 1014.7mb 81f 79f
7:50 3.5ft 9s 5s 11 13 mph 1014.9mb 81f 79f
6:50 3.5ft 8s 5s 11 13 mph 1015.4mb 81f 80f
5:50 4.5ft 8s 6s 11 16 mph 1016.1mb 81f 80f
4:50 4ft 8s 6s 13 16 mph 1016.4mb 81f 80f
3:50 4ft 8s 5s 13 16 mph 1016.6mb 81f 80f
2:50 4.5ft 8s 6s 13 16 mph 1016.5mb 81f 80f
1:50 4.5ft 7s 6s 13 16 mph 1016.2mb 81f 80f
12:50 4.5ft 8s 6s 13 16 mph 1015.8mb 81f 80f
lun. 02/23 11:50 4.5ft 8s 6s 11 13 mph 1015.3mb 81f 80f
10:50 4ft 8s 5s 13 16 mph 1015.2mb 81f 80f
9:50 4.5ft 8s 6s 13 16 mph 1015.1mb 81f 80f
8:50 4.5ft 8s 5s 13 16 mph 1015.1mb 81f 80f
7:50 5ft 8s 5s 13
mph
1015.5mb 81f 80f
6:50 5.5ft 6s 6s 13 16 mph 1016.2mb 81f 80f
5:50 5ft 8s 6s 16 18 mph 1016.7mb 81f 80f
4:50 5ft 8s 5s 16 18 mph 1017.6mb 81f 80f
3:50 5ft 9s 5s 16 20 mph 1018.1mb 80f 80f
2:50 5ft 8s 5s 18 22 mph 1018.1mb 80f 80f
1:50 5ft 9s 6s 20 22 mph 1017.7mb 80f 80f
12:50 4.5ft 9s 5s 16
mph
1017.2mb 81f 80f
11:50 4.5ft 7s 5s 16 18 mph 1016.3mb 81f 80f
10:50 5ft 8s 5s 16 20 mph 1015.5mb 81f 80f
9:50 5ft 7s 5s 18 20 mph 1015.1mb 81f 80f
8:50 5ft 7s 5s 18 20 mph 1014.9mb 81f 80f
7:50 5ft 8s 5s 18 20 mph 1015.2mb 81f 80f
6:50 5.5ft 9s 5s 20 22 mph 1015.8mb 81f 80f
5:50 5.5ft 8s 5s 18 22 mph 1016.7mb 81f 80f